METAR Data
IDs: Format: Raw Decoded Include TAF

Data at: 0859 UTC 26 Jan 2020

KAIG 260855Z AUTO 32007KT 10SM OVC009 M01/M02 A2981 RMK AO2 T10131020
KAIG 260835Z AUTO 31009KT 10SM OVC009 M01/M02 A2981 RMK AO2 T10131021
KAIG 260815Z AUTO 31006KT 10SM OVC009 M01/M02 A2981 RMK AO2 T10131022
KAIG 260755Z AUTO 32008KT 10SM OVC011 M01/M02 A2981 RMK AO2 T10131023
KAIG 260735Z AUTO 32007KT 10SM OVC011 M01/M02 A2981 RMK AO2 T10131022
KAIG 260715Z AUTO 31007KT 10SM OVC011 M01/M02 A2981 RMK AO2 T10131022
KAIG 260655Z AUTO 32009KT 10SM OVC011 M01/M02 A2980 RMK AO2 T10131022
KAIG 260635Z AUTO 31009KT 10SM OVC011 M01/M02 A2981 RMK AO2 T10131021
KAIG 260615Z AUTO 32007KT 10SM BKN011 BKN016 OVC060 M01/M02 A2981 RMK AO2 T10151020
KAIG 260555Z AUTO 32006KT 10SM SCT009 SCT020 OVC060 M01/M02 A2981 RMK AO2 60001 T10151021 10000 21015
KAIG 260535Z AUTO 31006KT 10SM SCT009 BKN018 OVC070 M01/M02 A2981 RMK AO2 T10131020
KAIG 260515Z AUTO 31007KT 4SM -SN BKN009 OVC014 M01/M02 A2981 RMK AO2 T10131016
KAIG 260455Z AUTO 31005KT 10SM -SN OVC011 M01/M01 A2981 RMK AO2 T10121015
KAIG 260435Z AUTO 31006KT 3SM -SN OVC011 M01/M01 A2980 RMK AO2 T10111015
KAIG 260415Z AUTO 31005KT 5SM -SN OVC011 M01/M01 A2980 RMK AO2 T10101013
KAIG 260355Z AUTO 31004KT 4SM -SN BKN009 OVC013 M01/M01 A2980 RMK AO2 T10101013 400061018
KAIG 260335Z AUTO 31005KT 3SM -SN OVC007 M01/M01 A2980 RMK AO2 T10101012
KAIG 260315Z AUTO 33005KT 2SM -SN OVC005 M01/M01 A2980 RMK AO2 T10101010
KAIG 260255Z AUTO 33005KT 1 3/4SM -SN OVC007 M01/M01 A2980 RMK AO2 60001 T10081009
KAIG 260235Z AUTO 32006KT 3SM -SN OVC010 M01/M01 A2980 RMK AO2 T10061010
KAIG 260215Z AUTO 32006KT 7SM -SN OVC010 00/M01 A2980 RMK AO2 T10051011
KAIG 260155Z AUTO 31004KT 5SM BR OVC010 00/M01 A2980 RMK AO2 T10051010
KAIG 260135Z AUTO 32005KT 7SM OVC010 00/M01 A2981 RMK AO2 T10051010
KAIG 260115Z AUTO 32003KT 4SM -SN BKN008 BKN013 OVC035 00/M01 A2980 RMK AO2 T10051007
KAIG 260055Z AUTO 33007KT 3SM -SN BKN008 BKN013 OVC036 00/00 A2980 RMK AO2 T10031005
KAIG 260035Z AUTO 31006KT 2 1/2SM -SN BKN010 BKN016 OVC023 00/00 A2980 RMK AO2 T10021004
KAIG 260015Z AUTO 33006KT 3SM -SN SCT012 BKN016 OVC033 00/M01 A2980 RMK AO2 T00001006
KAIG 252355Z AUTO 33007KT 4SM -SN SCT010 BKN015 OVC049 00/00 A2979 RMK AO2 T00001004 10006 20000
KAIG 252335Z AUTO 33008KT 7SM OVC015 00/M01 A2979 RMK AO2 T00011009
KAIG 252315Z AUTO 33009KT 10SM OVC015 00/00 A2979 RMK AO2 T00031005
KAIG 252255Z AUTO 33008KT 10SM BKN012 OVC019 00/00 A2978 RMK AO2 T00031005
KAIG 252235Z AUTO 33009KT 10SM BKN012 OVC021 01/00 A2978 RMK AO2 T00051005
KAIG 252215Z AUTO 34008KT 10SM BKN014 OVC021 01/M01 A2978 RMK AO2 T00061008
KAIG 252155Z AUTO 34009KT 10SM OVC012 01/00 A2978 RMK AO2 T00051003
KAIG 252135Z AUTO 34007KT 10SM OVC012 01/00 A2977 RMK AO2 T00051003
KAIG 252115Z AUTO 34006KT 3SM -SN OVC012 01/00 A2976 RMK AO2 T00051003
KAIG 252055Z AUTO 34005KT 10SM OVC014 01/00 A2976 RMK AO2 T00051002
KAIG 252035Z AUTO 33005KT 10SM OVC016 01/00 A2976 RMK AO2 T00061005
KAIG 252015Z AUTO 34008KT 10SM BKN016 BKN025 OVC040 01/00 A2976 RMK AO2 T00051005
KAIG 251955Z AUTO 34007KT 7SM BKN014 OVC025 00/00 A2976 RMK AO2 T00041005
KAIG 251935Z AUTO 34006KT 10SM SCT014 OVC023 01/M01 A2976 RMK AO2 T00051006
KAIG 251915Z AUTO 34007KT 10SM OVC014 01/M01 A2976 RMK AO2 T00051007
KAIG 251855Z AUTO 34007KT 10SM OVC014 01/M01 A2976 RMK AO2 T00051007
KAIG 251835Z AUTO 35007KT 10SM OVC014 01/M01 A2976 RMK AO2 T00051010
KAIG 251815Z AUTO 35007KT 10SM OVC014 00/M01 A2976 RMK AO2 T00031011
KAIG 251755Z AUTO 36008KT 10SM OVC014 00/M01 A2977 RMK AO2 60005 T00011011 10001 21018
KAIG 251735Z AUTO 36009KT 10SM OVC014 00/M01 A2978 RMK AO2 T00001013
KAIG 251715Z AUTO 01007KT 10SM OVC012 00/M01 A2978 RMK AO2 T00001013
KAIG 251655Z AUTO 01007KT 10SM OVC012 00/M01 A2978 RMK AO2 T10011014
KAIG 251635Z AUTO 36009KT 10SM OVC012 00/M01 A2978 RMK AO2 T10031014
KAIG 251615Z AUTO 35007KT 10SM BKN012 OVC032 00/M01 A2978 RMK AO2 T10051015
KAIG 251555Z AUTO 36006KT 7SM OVC012 M01/M01 A2978 RMK AO2 T10061015
KAIG 251535Z AUTO 35007KT 10SM BKN012 OVC050 M01/M02 A2978 RMK AO2 T10081016
KAIG 251515Z AUTO 35006KT 5SM BR SCT008 SCT022 OVC050 M01/M01 A2977 RMK AO2 T10101015
KAIG 251455Z AUTO 34005KT 3SM BR SCT008 SCT021 OVC039 M01/M01 A2978 RMK AO2 60005 T10111015
KAIG 251435Z AUTO 34005KT 1 3/4SM -SN SCT008 SCT021 OVC039 M01/M02 A2978 RMK AO2 T10151016
KAIG 251415Z AUTO 35006KT 1 3/4SM -SN SCT006 BKN021 OVC030 M01/M01 A2978 RMK AO2 T10151015
KAIG 251355Z AUTO 36006KT 2 1/2SM UP SCT021 BKN030 OVC041 M02/M02 A2978 RMK AO2 P0001 T10161016
KAIG 251335Z AUTO 36006KT 1 1/2SM -SN BKN021 BKN028 OVC036 M02/M02 A2977 RMK AO2 P0001 T10171017
KAIG 251315Z AUTO 36005KT 3SM UP BKN017 OVC038 M02/M02 A2977 RMK AO2 P0001 T10171017
KAIG 251255Z AUTO 35005KT 2SM -SN SCT006 OVC019 M02/M02 A2976 RMK AO2 P0004 T10171017
KAIG 251235Z AUTO 34004KT 1 1/2SM -SN BKN011 OVC019 M02/M02 A2976 RMK AO2 P0003 T10171017
KAIG 251215Z AUTO 35006KT 1SM -SN OVC009 M02/M02 A2976 RMK AO2 P0002 T10171017
KAIG 251155Z AUTO 34005KT 1SM SN OVC009 M02/M02 A2976 RMK AO2 P0004 60012 70020 T10171017 11010 21017
KAIG 251135Z AUTO 34005KT 1SM SN OVC009 M02/M02 A2975 RMK AO2 P0003 T10171017
KAIG 251115Z AUTO 35005KT 3SM UP OVC014 M02/M02 A2975 RMK AO2 P0001 T10171017
KAIG 251055Z AUTO 36006KT 2 1/2SM -SN BKN016 OVC021 M02/M02 A2975 RMK AO2 P0002 T10171017
KAIG 251035Z AUTO 36005KT 2 1/2SM -SN OVC019 M02/M02 A2975 RMK AO2 P0002 T10171017
KAIG 251015Z AUTO 36005KT 3SM UP SCT008 BKN014 OVC019 M02/M02 A2975 RMK AO2 P0001 T10161016
KAIG 250955Z AUTO 36004KT 1 1/2SM -SN OVC012 M02/M02 A2975 RMK AO2 P0004 T10161016
KAIG 250935Z AUTO 03005KT 1 1/4SM -SN SCT004 OVC014 M01/M01 A2976 RMK AO2 P0003 T10151015
KAIG 250915Z AUTO 02005KT 1 1/4SM -SN SCT006 OVC014 M01/M01 A2976 RMK AO2 P0001 T10151015
KAIG 250855Z AUTO 02006KT 1 1/2SM -SN BKN008 OVC012 M01/M01 A2976 RMK AO2 P0001 60001 T10131013
KAIG 250835Z AUTO 01006KT 2 1/2SM -SN SCT007 BKN018 OVC027 M01/M01 A2977 RMK AO2 P0001 T10131013
KAIG 250815Z AUTO 01006KT 4SM UP SCT011 BKN024 OVC030 M01/M01 A2978 RMK AO2 T10131013
KAIG 250755Z AUTO 01005KT 2 1/2SM -SN SCT009 BKN015 OVC026 M01/M01 A2978 RMK AO2 T10121013
KAIG 250735Z AUTO 01004KT 3SM BR BKN009 OVC015 M01/M01 A2978 RMK AO2 T10111015
KAIG 250715Z AUTO 01006KT 10SM OVC009 M01/M01 A2978 RMK AO2 T10101013
KAIG 250655Z AUTO 01005KT 5SM BR OVC011 M01/M01 A2979 RMK AO2 T10111015
KAIG 250635Z AUTO 02006KT 4SM BR OVC011 M01/M01 A2979 RMK AO2 T10101015
KAIG 250615Z AUTO 03008KT 5SM BR OVC011 M01/M01 A2980 RMK AO2 T10101015
KAIG 250555Z AUTO 02005KT 7SM UP OVC011 M01/M01 A2981 RMK AO2 P0001 60003 T10101011 11002 21012
KAIG 250535Z AUTO 02004KT 4SM UP BKN011 BKN022 OVC031 M01/M01 A2981 RMK AO2 P0001 T10111011
KAIG 250515Z AUTO 03006KT 2SM UP BKN007 BKN012 OVC023 M01/M01 A2981 RMK AO2 P0001 T10101010
KAIG 250455Z AUTO 03005KT 2SM -SN BKN007 BKN011 OVC021 M01/M01 A2981 RMK AO2 P0001 T10101010
KAIG 250435Z AUTO 04007KT 3SM -SN SCT006 BKN013 OVC021 M01/M01 A2981 RMK AO2 T10081009
KAIG 250415Z AUTO 04008KT 3SM -SN BKN008 OVC015 M01/M01 A2982 RMK AO2 T10071008
KAIG 250355Z AUTO 04008KT 2 1/2SM -SN BKN008 OVC012 M01/M01 A2982 RMK AO2 P0001 T10061007 400001015
KAIG 250335Z AUTO 03008KT 4SM -SN OVC010 00/M01 A2982 RMK AO2 T10051008
KAIG 250315Z AUTO 03009KT 7SM OVC010 00/M01 A2983 RMK AO2 T10051008
KAIG 250255Z AUTO 03006KT 5SM BR OVC010 00/M01 A2983 RMK AO2 T10051007
KAIG 250235Z AUTO 03008KT 7SM -SN OVC010 00/M01 A2983 RMK AO2 T10051006
KAIG 250215Z AUTO 03008KT 7SM OVC008 00/00 A2985 RMK AO2 T10041005
KAIG 250155Z AUTO 02006KT 5SM BR OVC006 00/00 A2985 RMK AO2 T10031003
KAIG 250135Z AUTO 03006KT 3SM BR OVC006 00/00 A2985 RMK AO2 T10031003
KAIG 250115Z AUTO 04008KT 5SM BR OVC004 00/00 A2986 RMK AO2 T10021002
KAIG 250055Z AUTO 04009KT 4SM BR OVC004 00/00 A2987 RMK AO2 T10031003
KAIG 250035Z AUTO 04007KT 4SM BR OVC004 00/00 A2987 RMK AO2 T10031003
KAIG 250015Z AUTO 05009KT 4SM BR OVC004 00/00 A2987 RMK AO2 T10051005
KAIG 242355Z AUTO 05008KT 5SM BR OVC006 00/00 A2987 RMK AO2 T10031004 10000 21003
KAIG 242335Z AUTO 05008KT 10SM OVC006 00/00 A2987 RMK AO2 T10031005
KAIG 242315Z AUTO 05007KT 7SM OVC008 00/00 A2987 RMK AO2 T10031005
KAIG 242255Z AUTO 05007KT 10SM OVC008 00/00 A2987 RMK AO2 T10031005
KAIG 242235Z AUTO 05008KT 10SM OVC008 00/00 A2987 RMK AO2 T10021005
KAIG 242215Z AUTO 05008KT 5SM BR OVC008 00/00 A2988 RMK AO2 T10021003
KAIG 242155Z AUTO 06008KT 3SM -SN OVC008 00/00 A2988 RMK AO2 T10011004
KAIG 242135Z AUTO 06006KT 2 1/2SM BR OVC006 00/00 A2988 RMK AO2 T00001003
KAIG 242115Z AUTO 07008KT 2SM BR OVC006 00/00 A2988 RMK AO2 T00001003